createdAt,value
2019-02-04T00:02:00.698Z,11.07
2019-02-04T00:04:30.659Z,5.33
2019-02-04T00:07:00.128Z,11.03
2019-02-04T00:09:29.191Z,7.27
2019-02-04T00:11:58.266Z,7.50
2019-02-04T00:14:27.306Z,7.30
2019-02-04T00:16:56.371Z,4.97
2019-02-04T00:19:25.435Z,7.60
2019-02-04T00:21:54.497Z,5.83
2019-02-04T00:24:23.565Z,8.50
2019-02-04T00:26:52.631Z,8.03
2019-02-04T00:29:21.697Z,12.50
2019-02-04T00:31:50.835Z,19.40
2019-02-04T00:34:19.892Z,7.77
2019-02-04T00:36:48.937Z,5.80
2019-02-04T00:39:18.011Z,8.20
2019-02-04T00:41:47.095Z,8.27
2019-02-04T00:44:16.075Z,6.83
2019-02-04T00:46:52.121Z,9.40
2019-02-04T00:49:16.823Z,7.17
2019-02-04T00:51:45.916Z,5.73
2019-02-04T00:54:15.398Z,6.13
2019-02-04T00:56:44.462Z,11.57
2019-02-04T00:59:13.510Z,9.00
2019-02-04T01:01:42.756Z,9.13
2019-02-04T01:04:11.891Z,7.60
2019-02-04T01:06:40.934Z,9.30
2019-02-04T01:09:10.511Z,6.33
2019-02-04T01:11:39.566Z,8.23
2019-02-04T01:14:08.631Z,5.67
2019-02-04T01:16:37.674Z,8.50
2019-02-04T01:19:06.718Z,6.83
2019-02-04T01:21:35.784Z,9.47
2019-02-04T01:24:05.008Z,8.77
2019-02-04T01:26:34.058Z,5.60
2019-02-04T01:29:03.103Z,8.03
2019-02-04T01:31:32.160Z,8.03
2019-02-04T01:34:01.358Z,7.87
2019-02-04T01:36:30.358Z,7.37
2019-02-04T01:38:59.393Z,5.47
2019-02-04T01:41:28.754Z,6.67
2019-02-04T01:43:57.819Z,6.23
2019-02-04T01:46:26.871Z,9.57
2019-02-04T01:48:56.143Z,8.70
2019-02-04T01:51:25.369Z,7.90
2019-02-04T01:53:54.685Z,6.47
2019-02-04T01:56:23.651Z,11.47
2019-02-04T01:58:52.738Z,7.80
2019-02-04T02:01:21.956Z,5.87
2019-02-04T02:03:50.967Z,8.93
2019-02-04T02:06:20.588Z,6.13
2019-02-04T02:08:50.655Z,7.63
2019-02-04T02:11:19.763Z,10.07
2019-02-04T02:13:48.775Z,8.47
2019-02-04T02:16:17.853Z,8.73
2019-02-04T02:18:46.929Z,7.77
2019-02-04T02:21:16.365Z,9.27
2019-02-04T02:23:45.407Z,6.60
2019-02-04T02:26:14.459Z,7.53
2019-02-04T02:28:43.515Z,5.97
2019-02-04T02:31:12.580Z,8.77
2019-02-04T02:33:41.683Z,5.43
2019-02-04T02:36:10.798Z,7.90
2019-02-04T02:38:39.790Z,11.67
2019-02-04T02:41:08.876Z,8.13
2019-02-04T02:43:38.149Z,9.23
2019-02-04T02:46:07.204Z,5.83
2019-02-04T02:48:36.186Z,8.87
2019-02-04T02:51:05.535Z,7.60
2019-02-04T02:53:34.661Z,7.50
2019-02-04T02:56:03.928Z,7.50
2019-02-04T02:58:33.067Z,10.37
2019-02-04T03:01:02.242Z,6.47
2019-02-04T03:03:31.305Z,7.63
2019-02-04T03:06:00.934Z,5.97
2019-02-04T03:08:29.978Z,7.53
2019-02-04T03:10:59.120Z,6.83
2019-02-04T03:13:28.166Z,5.67
2019-02-04T03:15:57.704Z,5.93
2019-02-04T03:18:26.698Z,8.90
2019-02-04T03:20:55.764Z,6.43
2019-02-04T03:23:24.838Z,7.30
2019-02-04T03:25:53.994Z,5.87
2019-02-04T03:28:23.100Z,8.33
2019-02-04T03:30:52.155Z,7.77
2019-02-04T03:33:21.165Z,7.93
2019-02-04T03:35:50.276Z,8.40
2019-02-04T03:38:19.386Z,7.73
2019-02-04T03:40:48.353Z,6.77
2019-02-04T03:43:17.416Z,6.77
2019-02-04T03:45:46.754Z,9.80
2019-02-04T03:48:16.095Z,6.87
2019-02-04T03:50:45.081Z,5.90
2019-02-04T03:53:14.123Z,8.47
2019-02-04T03:55:43.181Z,6.43
2019-02-04T03:58:12.217Z,8.40
2019-02-04T04:00:41.883Z,9.47
2019-02-04T04:03:11.202Z,7.73
2019-02-04T04:05:40.341Z,6.67
2019-02-04T04:08:09.461Z,7.57
2019-02-04T04:10:38.579Z,7.27
2019-02-04T04:13:07.708Z,6.67
2019-02-04T04:15:36.791Z,9.93
2019-02-04T04:18:15.626Z,7.37
2019-02-04T04:20:36.721Z,9.07
2019-02-04T04:23:05.853Z,9.47
2019-02-04T04:25:34.887Z,7.60
2019-02-04T04:28:05.204Z,8.23
2019-02-04T04:30:34.541Z,7.77
2019-02-04T04:33:03.685Z,7.37
2019-02-04T04:35:32.921Z,8.70
2019-02-04T04:38:02.805Z,8.30
2019-02-04T04:40:31.872Z,7.20
2019-02-04T04:43:00.925Z,6.37
2019-02-04T04:45:30.454Z,8.37
2019-02-04T04:47:59.795Z,9.87
2019-02-04T04:50:28.930Z,9.47
2019-02-04T04:52:57.925Z,7.57
2019-02-04T04:55:27.359Z,9.67
2019-02-04T04:57:56.822Z,11.53
2019-02-04T05:00:31.284Z,9.23
2019-02-04T05:03:00.442Z,8.43
2019-02-04T05:05:29.523Z,6.57
2019-02-04T05:07:58.563Z,6.40
2019-02-04T05:10:27.630Z,10.93
2019-02-04T05:12:56.669Z,6.20
2019-02-04T05:15:26.943Z,9.40
2019-02-04T05:17:56.034Z,6.47
2019-02-04T05:20:25.492Z,7.80
2019-02-04T05:22:54.555Z,11.17
2019-02-04T05:25:23.626Z,9.27
2019-02-04T05:27:53.130Z,6.40
2019-02-04T05:30:23.223Z,6.03
2019-02-04T05:32:52.264Z,10.17
2019-02-04T05:35:21.332Z,8.53
2019-02-04T05:37:50.380Z,9.60
2019-02-04T05:40:19.706Z,5.87
2019-02-04T05:42:49.170Z,8.30
2019-02-04T05:45:19.200Z,6.17
2019-02-04T05:47:48.704Z,6.03
2019-02-04T05:50:19.177Z,7.83
2019-02-04T05:52:48.516Z,9.33
2019-02-04T05:55:18.792Z,8.50
2019-02-04T05:57:47.922Z,8.67
2019-02-04T06:00:24.088Z,7.47
2019-02-04T06:02:53.179Z,10.73
2019-02-04T06:05:22.238Z,11.13
2019-02-04T06:07:51.275Z,8.57
2019-02-04T06:10:20.617Z,8.87
2019-02-04T06:12:49.724Z,8.30
2019-02-04T06:15:18.812Z,9.00
2019-02-04T06:17:47.855Z,9.37
2019-02-04T06:20:18.377Z,10.00
2019-02-04T06:22:47.427Z,10.40
2019-02-04T06:25:16.492Z,10.23
2019-02-04T06:27:45.609Z,9.40
2019-02-04T06:30:14.772Z,10.17
2019-02-04T06:32:43.827Z,11.77
2019-02-04T06:35:13.388Z,9.07
2019-02-04T06:37:42.529Z,9.90
2019-02-04T06:40:12.313Z,8.63
2019-02-04T06:42:41.462Z,8.73
2019-02-04T06:45:12.210Z,11.93
2019-02-04T06:47:41.346Z,8.50
2019-02-04T06:50:12.540Z,11.57
2019-02-04T06:52:42.408Z,8.17
2019-02-04T06:55:16.811Z,6.20
2019-02-04T06:57:45.881Z,10.50
2019-02-04T07:00:18.798Z,8.87
2019-02-04T07:02:48.194Z,9.77
2019-02-04T07:05:17.605Z,13.07
2019-02-04T07:07:46.730Z,6.87
2019-02-04T07:10:18.352Z,6.63
2019-02-04T07:12:47.535Z,7.27
2019-02-04T07:15:16.577Z,7.50
2019-02-04T07:17:45.655Z,7.97
2019-02-04T07:20:17.914Z,6.77
2019-02-04T07:22:46.993Z,11.20
2019-02-04T07:25:16.383Z,5.70
2019-02-04T07:27:45.506Z,7.73
2019-02-04T07:30:17.215Z,10.37
2019-02-04T07:32:46.506Z,9.93
2019-02-04T07:35:16.272Z,8.97
2019-02-04T07:37:45.561Z,11.30
2019-02-04T07:40:25.630Z,9.20
2019-02-04T07:42:54.809Z,7.83
2019-02-04T07:45:24.151Z,8.47
2019-02-04T07:47:53.606Z,7.17
2019-02-04T07:50:22.852Z,8.13
2019-02-04T07:52:52.125Z,6.67
2019-02-04T07:55:21.190Z,8.87
2019-02-04T07:57:50.286Z,7.13
2019-02-04T08:00:25.068Z,6.83
2019-02-04T08:02:54.461Z,5.87
2019-02-04T08:05:23.830Z,7.80
2019-02-04T08:07:52.978Z,7.93
2019-02-04T08:10:22.030Z,7.37
2019-02-04T08:13:01.105Z,9.90
2019-02-04T08:15:26.978Z,8.60
2019-02-04T08:17:56.704Z,10.37
2019-02-04T08:20:26.401Z,8.00
2019-02-04T08:22:55.566Z,6.93
2019-02-04T08:25:26.000Z,5.20
2019-02-04T08:27:55.400Z,6.00
2019-02-04T08:30:29.573Z,7.27
2019-02-04T08:32:58.991Z,6.57
2019-02-04T08:35:30.378Z,8.83
2019-02-04T08:37:59.878Z,7.93
2019-02-04T08:40:28.943Z,8.73
2019-02-04T08:42:58.386Z,7.83
2019-02-04T08:45:27.591Z,6.00
2019-02-04T08:47:56.722Z,5.17
2019-02-04T08:50:26.103Z,9.70
2019-02-04T08:52:55.402Z,6.77
2019-02-04T08:55:24.642Z,6.87
2019-02-04T08:57:54.298Z,6.17
2019-02-04T09:00:26.496Z,4.33
2019-02-04T09:02:55.597Z,8.03
2019-02-04T09:05:25.856Z,7.67
2019-02-04T09:07:54.912Z,8.93
2019-02-04T09:10:27.233Z,6.50
2019-02-04T09:12:56.393Z,5.73
2019-02-04T09:15:25.528Z,4.53
2019-02-04T09:17:55.059Z,6.97
2019-02-04T09:20:24.222Z,7.03
2019-02-04T09:22:53.561Z,6.50
2019-02-04T09:25:23.854Z,9.23
2019-02-04T09:27:53.663Z,6.47
2019-02-04T09:30:24.301Z,7.70
2019-02-04T09:32:54.216Z,5.87
2019-02-04T09:35:23.734Z,8.83
2019-02-04T09:37:52.926Z,7.13
2019-02-04T09:40:24.753Z,7.03
2019-02-04T09:42:54.116Z,7.33
2019-02-04T09:45:26.967Z,6.33
2019-02-04T09:47:54.059Z,11.03
2019-02-04T09:50:23.751Z,10.37
2019-02-04T09:52:52.886Z,5.77
2019-02-04T09:55:24.691Z,7.43
2019-02-04T09:57:53.930Z,9.60
2019-02-04T10:00:28.096Z,5.53
2019-02-04T10:02:57.524Z,6.93
2019-02-04T10:05:27.764Z,6.73
2019-02-04T10:07:56.845Z,6.57
2019-02-04T10:10:26.730Z,7.20
2019-02-04T10:12:56.246Z,5.17
2019-02-04T10:15:27.812Z,6.20
2019-02-04T10:17:56.992Z,7.07
2019-02-04T10:20:33.574Z,7.70
2019-02-04T10:22:57.673Z,6.20
2019-02-04T10:25:29.023Z,7.43
2019-02-04T10:27:58.252Z,8.00
2019-02-04T10:30:27.393Z,7.73
2019-02-04T10:32:56.532Z,9.03
2019-02-04T10:35:25.725Z,6.90
2019-02-04T10:37:54.848Z,7.95
2019-02-04T10:40:25.106Z,10.10
2019-02-04T10:42:54.175Z,6.37
2019-02-04T10:45:23.359Z,7.30
2019-02-04T10:47:52.491Z,7.43
2019-02-04T10:50:23.938Z,6.93
2019-02-04T10:52:53.104Z,5.43
2019-02-04T10:55:22.403Z,6.70
2019-02-04T10:57:51.725Z,6.47
2019-02-04T11:00:25.504Z,5.93
2019-02-04T11:02:54.669Z,5.20
2019-02-04T11:05:26.010Z,6.47
2019-02-04T11:07:55.168Z,7.87
2019-02-04T11:10:28.536Z,5.47
2019-02-04T11:12:57.903Z,6.40
2019-02-04T11:15:27.047Z,7.20
2019-02-04T11:17:56.606Z,6.85
2019-02-04T11:20:27.065Z,7.73
2019-02-04T11:22:56.480Z,7.83
2019-02-04T11:25:25.610Z,8.37
2019-02-04T11:27:54.992Z,7.50
2019-02-04T11:30:29.624Z,8.27
2019-02-04T11:32:58.748Z,8.60
2019-02-04T11:35:28.145Z,12.13
2019-02-04T11:37:57.319Z,7.20
2019-02-04T11:40:31.940Z,7.23
2019-02-04T11:43:01.210Z,10.97
2019-02-04T11:45:30.834Z,9.03
2019-02-04T11:48:00.002Z,9.67
2019-02-04T11:50:29.335Z,9.70
2019-02-04T11:52:58.475Z,7.67
2019-02-04T11:55:27.630Z,8.67
2019-02-04T11:57:56.838Z,6.70
2019-02-04T12:00:27.766Z,8.13
2019-02-04T12:02:57.794Z,9.17
2019-02-04T12:05:26.862Z,10.27
2019-02-04T12:07:55.988Z,10.13
2019-02-04T12:10:33.921Z,10.17
2019-02-04T12:13:03.238Z,8.73
2019-02-04T12:15:32.785Z,9.47
2019-02-04T12:18:01.858Z,9.07
2019-02-04T12:20:31.014Z,7.57
2019-02-04T12:23:00.071Z,10.03
2019-02-04T12:25:29.754Z,9.53
2019-02-04T12:27:59.088Z,7.63
2019-02-04T12:30:31.195Z,7.37
2019-02-04T12:33:00.563Z,8.47
2019-02-04T12:35:29.735Z,6.30
2019-02-04T12:37:58.863Z,8.33
2019-02-04T12:40:27.928Z,7.90
2019-02-04T12:42:57.010Z,9.10
2019-02-04T12:45:28.395Z,9.07
2019-02-04T12:48:00.732Z,8.07
2019-02-04T12:50:28.669Z,6.77
2019-02-04T12:52:57.784Z,7.20
2019-02-04T12:55:28.390Z,9.53
2019-02-04T12:57:57.456Z,8.03
2019-02-04T13:00:29.955Z,8.07
2019-02-04T13:02:59.006Z,9.23
2019-02-04T13:05:33.411Z,6.80
2019-02-04T13:08:02.461Z,7.27
2019-02-04T13:10:31.651Z,9.13
2019-02-04T13:13:00.981Z,6.67
2019-02-04T13:15:30.057Z,7.57
2019-02-04T13:17:59.334Z,8.37
2019-02-04T13:20:28.461Z,9.07
2019-02-04T13:22:58.119Z,8.47
2019-02-04T13:25:28.031Z,7.60
2019-02-04T13:27:57.078Z,9.33
2019-02-04T13:30:26.926Z,8.70
2019-02-04T13:32:55.973Z,7.17
2019-02-04T13:35:25.122Z,8.07
2019-02-04T13:37:54.622Z,9.47
2019-02-04T13:40:25.429Z,11.43
2019-02-04T13:42:54.650Z,8.23
2019-02-04T13:45:23.989Z,6.07
2019-02-04T13:47:53.792Z,9.53
2019-02-04T13:50:23.163Z,6.03
2019-02-04T13:52:52.317Z,7.60
2019-02-04T13:55:26.993Z,8.93
2019-02-04T13:57:56.064Z,7.00
2019-02-04T14:00:27.634Z,7.93
2019-02-04T14:02:59.760Z,8.30
2019-02-04T14:05:31.384Z,9.07
2019-02-04T14:08:01.820Z,8.53
2019-02-04T14:10:33.186Z,12.03
2019-02-04T14:13:02.288Z,8.30
2019-02-04T14:15:31.806Z,7.70
2019-02-04T14:18:01.100Z,7.53
2019-02-04T14:20:30.140Z,8.00
2019-02-04T14:22:59.203Z,8.40
2019-02-04T14:25:28.274Z,7.27
2019-02-04T14:27:57.427Z,9.67
2019-02-04T14:30:31.670Z,6.53
2019-02-04T14:33:00.724Z,9.03
2019-02-04T14:35:30.703Z,6.73
2019-02-04T14:37:59.955Z,8.73
2019-02-04T14:40:29.014Z,7.30
2019-02-04T14:43:13.962Z,7.87
2019-02-04T14:46:22.786Z,7.17
2019-02-04T14:49:24.343Z,9.83
2019-02-04T14:52:37.408Z,8.90
2019-02-04T14:55:49.384Z,8.30
2019-02-04T14:58:46.233Z,6.73
2019-02-04T15:02:10.483Z,7.50
2019-02-04T15:04:51.562Z,7.17
2019-02-04T15:07:52.837Z,8.40
2019-02-04T15:10:54.171Z,5.90
2019-02-04T15:13:48.015Z,7.57
2019-02-04T15:16:23.096Z,6.33
2019-02-04T15:19:32.041Z,9.13
2019-02-04T15:22:11.319Z,5.77
2019-02-04T15:25:34.227Z,8.43
2019-02-04T15:28:27.075Z,7.90
2019-02-04T15:31:19.501Z,7.70
2019-02-04T15:34:00.548Z,6.17
2019-02-04T15:37:12.711Z,7.27
2019-02-04T15:40:05.763Z,7.33
2019-02-04T15:43:27.877Z,7.43
2019-02-04T15:46:36.538Z,6.27
2019-02-04T15:49:55.785Z,8.37
2019-02-04T15:52:24.943Z,6.93
2019-02-04T15:54:54.078Z,7.63
2019-02-04T15:57:23.401Z,7.03
2019-02-04T15:59:52.483Z,7.33
2019-02-04T16:02:21.618Z,7.13
2019-02-04T16:04:50.751Z,8.90
2019-02-04T16:07:19.942Z,8.33
2019-02-04T16:09:48.986Z,9.17
2019-02-04T16:12:18.341Z,7.03
2019-02-04T16:14:47.375Z,8.63
2019-02-04T16:17:16.516Z,8.87
2019-02-04T16:19:45.840Z,7.93
2019-02-04T16:22:14.989Z,9.00
2019-02-04T16:24:44.072Z,7.83
2019-02-04T16:27:13.530Z,8.10
2019-02-04T16:29:42.598Z,8.90
2019-02-04T16:32:12.890Z,9.10
2019-02-04T16:34:43.294Z,7.27
2019-02-04T16:37:12.412Z,6.97
2019-02-04T16:39:41.558Z,7.83
2019-02-04T17:05:16.606Z,12.50
2019-02-04T17:07:45.662Z,12.43
2019-02-04T17:10:17.668Z,11.63
2019-02-04T17:12:46.814Z,10.47
2019-02-04T17:15:16.125Z,12.03
2019-02-04T17:17:45.626Z,10.40
2019-02-04T17:20:18.278Z,12.20
2019-02-04T17:22:47.417Z,10.10
2019-02-04T17:25:17.095Z,9.70
2019-02-04T17:27:46.415Z,10.67
2019-02-04T17:30:17.974Z,11.03
2019-02-04T17:32:47.207Z,9.40
2019-02-04T17:35:16.346Z,10.17
2019-02-04T17:37:45.529Z,10.77
2019-02-04T17:40:16.947Z,9.60
2019-02-04T17:42:46.237Z,9.37
2019-02-04T17:45:16.315Z,10.50
2019-02-04T17:47:46.285Z,11.53
2019-02-04T17:50:16.855Z,11.87
2019-02-04T17:52:46.086Z,10.27
2019-02-04T17:55:17.191Z,12.47
2019-02-04T17:57:46.431Z,10.63
2019-02-04T18:00:31.615Z,10.23
2019-02-04T18:03:00.927Z,12.10
2019-02-04T18:05:30.041Z,10.53
2019-02-04T18:07:59.139Z,14.37
2019-02-04T18:10:29.588Z,11.20
2019-02-04T18:12:58.649Z,10.97
2019-02-04T18:15:27.734Z,9.40
2019-02-04T18:17:56.801Z,10.07
2019-02-04T18:20:26.269Z,11.97
2019-02-04T18:22:55.366Z,11.67
2019-02-04T18:25:24.537Z,12.17
2019-02-04T18:27:53.674Z,11.93
2019-02-04T18:30:23.272Z,11.00
2019-02-04T18:32:52.624Z,10.90
2019-02-04T18:35:22.238Z,10.20
2019-02-04T18:37:51.378Z,12.53
2019-02-04T18:40:20.445Z,13.57
2019-02-04T18:42:50.853Z,13.30
2019-02-04T18:45:22.093Z,9.87
2019-02-04T18:47:51.334Z,10.50
2019-02-04T18:50:21.129Z,13.87
2019-02-04T18:52:50.564Z,12.20
2019-02-04T18:55:21.927Z,12.40
2019-02-04T18:57:51.082Z,12.83
2019-02-04T19:00:22.861Z,12.43
2019-02-04T19:02:51.952Z,12.83
2019-02-04T19:05:21.380Z,14.07
2019-02-04T19:07:50.727Z,13.20
2019-02-04T19:10:21.016Z,14.27
2019-02-04T19:12:50.177Z,16.03
2019-02-04T19:15:20.902Z,14.43
2019-02-04T19:17:51.724Z,15.07
2019-02-04T19:20:22.046Z,13.40
2019-02-04T19:22:51.530Z,12.70
2019-02-04T19:25:21.389Z,14.50
2019-02-04T19:27:50.995Z,16.70
2019-02-04T19:30:37.670Z,13.87
2019-02-04T19:33:06.927Z,16.63
2019-02-04T19:35:36.071Z,15.80
2019-02-04T19:38:05.224Z,15.93
2019-02-04T19:40:34.325Z,13.10
2019-02-04T19:43:03.456Z,16.87
2019-02-04T19:45:32.945Z,15.27
2019-02-04T19:48:03.221Z,17.03
2019-02-04T19:50:32.752Z,16.23
2019-02-04T19:53:02.766Z,17.23
2019-02-04T19:55:31.937Z,15.20
2019-02-04T19:58:01.150Z,15.37
2019-02-04T20:00:30.975Z,15.73
2019-02-04T20:03:00.127Z,16.77
2019-02-04T20:05:29.373Z,19.47
2019-02-04T20:07:58.465Z,17.23
2019-02-04T20:10:28.427Z,20.00
2019-02-04T20:12:57.570Z,17.53
2019-02-04T20:15:27.543Z,16.70
2019-02-04T20:17:56.947Z,17.17
2019-02-04T20:20:27.207Z,17.57
2019-02-04T20:22:56.987Z,19.60
2019-02-04T20:25:27.919Z,18.37
2019-02-04T20:27:57.186Z,19.90
2019-02-04T20:30:31.539Z,19.53
2019-02-04T20:33:00.653Z,20.30
2019-02-04T20:35:29.876Z,16.87
2019-02-04T20:37:59.989Z,20.80
2019-02-04T20:40:29.380Z,19.43
2019-02-04T20:42:58.462Z,17.10
2019-02-04T20:45:27.629Z,21.20
2019-02-04T20:47:56.908Z,19.10
2019-02-04T20:50:28.426Z,18.90
2019-02-04T20:52:57.632Z,19.70
2019-02-04T20:55:26.836Z,20.60
2019-02-04T20:57:55.955Z,19.50
2019-02-04T21:00:29.243Z,19.37
2019-02-04T21:02:58.319Z,20.03
2019-02-04T21:05:27.782Z,19.87
2019-02-04T21:07:56.859Z,19.60
2019-02-04T21:10:26.790Z,19.37
2019-02-04T21:12:56.252Z,18.83
2019-02-04T21:15:25.556Z,20.07
2019-02-04T21:17:54.914Z,20.20
2019-02-04T21:20:25.090Z,20.10
2019-02-04T21:22:54.178Z,22.43
2019-02-04T21:25:23.571Z,21.77
2019-02-04T21:27:52.963Z,18.70
2019-02-04T21:30:27.618Z,19.67
2019-02-04T21:32:56.884Z,21.30
2019-02-04T21:35:26.131Z,26.37
2019-02-04T21:37:55.314Z,22.57
2019-02-04T21:40:24.813Z,21.27
2019-02-04T21:42:54.094Z,21.50
2019-02-04T21:45:23.541Z,22.33
2019-02-04T21:47:52.717Z,26.97
2019-02-04T21:50:23.366Z,20.83
2019-02-04T21:52:52.917Z,22.73
2019-02-04T21:55:23.503Z,23.70
2019-02-04T21:57:52.658Z,21.63
2019-02-04T22:00:26.693Z,24.87
2019-02-04T22:02:55.896Z,22.17
2019-02-04T22:05:26.403Z,21.87
2019-02-04T22:07:55.550Z,23.03
2019-02-04T22:10:25.457Z,22.60
2019-02-04T22:12:54.663Z,22.60
2019-02-04T22:15:23.888Z,23.23
2019-02-04T22:17:53.089Z,21.70
2019-02-04T22:20:22.335Z,23.60
2019-02-04T22:22:57.501Z,22.70
2019-02-04T22:25:27.020Z,21.90
2019-02-04T22:27:56.149Z,23.00
2019-02-04T22:30:27.045Z,24.17
2019-02-04T22:32:56.379Z,22.70
2019-02-04T22:35:25.659Z,24.97
2019-02-04T22:37:54.731Z,24.73
2019-02-04T22:40:26.186Z,24.93
2019-02-04T22:42:55.537Z,25.07
2019-02-04T22:45:24.713Z,24.47
2019-02-04T22:47:54.075Z,24.73
2019-02-04T22:50:30.751Z,24.07
2019-02-04T22:53:02.309Z,23.17
2019-02-04T22:55:32.501Z,26.00
2019-02-04T22:58:01.965Z,25.33
2019-02-04T23:00:47.237Z,26.40
2019-02-04T23:03:17.965Z,23.37
2019-02-04T23:05:47.121Z,25.60
2019-02-04T23:08:16.177Z,24.87
2019-02-04T23:10:45.260Z,26.33
2019-02-04T23:13:14.427Z,24.77
2019-02-04T23:15:43.637Z,26.17
2019-02-04T23:18:13.215Z,26.50
2019-02-04T23:20:42.390Z,28.40
2019-02-04T23:23:11.550Z,24.03
2019-02-04T23:25:43.569Z,27.40
2019-02-04T23:28:11.625Z,25.57
2019-02-04T23:30:40.738Z,25.33
2019-02-04T23:33:09.889Z,28.07
2019-02-04T23:35:38.979Z,26.47
2019-02-04T23:38:08.578Z,30.03
2019-02-04T23:40:37.724Z,26.70
2019-02-04T23:43:07.275Z,23.85
2019-02-04T23:45:36.428Z,25.73
2019-02-04T23:48:07.599Z,26.23
2019-02-04T23:50:36.698Z,26.47
2019-02-04T23:53:06.060Z,26.60
2019-02-04T23:55:35.124Z,24.57
2019-02-04T23:58:04.594Z,27.70
